Aeroporto :
LOGIN :

Iscrizione | Disclaimer

   EN    FR    IT 

 










Sommario :    VFR   VFR Marginale   IFR   IFR Intensivo   IFR Molto Intensivo
Visibilità : 
Base nubi : 
>= 8 km
>= 3000ft
5 / 8 km
1000 / 3000 ft
1500m / 5 km
500 / 1000 ft
800 / 1500m
200 / 500 ft
< 800m
< 200 ft
Simboli :   Temporali  Nebbia  Neve Forte  Precipitazioni Forti  Vento > 20 kt
SIGMETs :   Varie  Temporali  Ghiacco  Turbolenza  Onda orograficha  Ceneri Vulcaniche






- Altitudine del aeroporto : 1058 ft
- Codice IATA : SCN


EDDR - Saarbrücken

ULTIMO METAR :
  • 180820Z 22009KT 9999 BKN009TCU 03/02 Q1026 NOSIG

METARs OBSOLETI :
  • 180750Z 21009KT 9999 FEW008 BKN014TCU 03/02 Q1026 TEMPO BKN010
  • 180720Z 22009KT 9999 BKN015 03/01 Q1026 TEMPO BKN010
  • 180650Z 21009KT 9999 FEW015 BKN021 03/01 Q1025 NOSIG
  • 180620Z 22009KT 9999 FEW021 BKN046 02/01 Q1025 NOSIG
  • 180550Z 22010KT 9999 FEW030 BKN044 02/01 Q1025 NOSIG

TAF TAF EDDR
Valido dal 18 a 06 ore il 19 a 06 ore UTC


180500Z 1806/1906 22008KT 9999 BKN030
PROB30
TEMPO 1808/1820 4500 SHRA BKN020CB
BECMG 1818/1820 28005KT
PROB30
TEMPO 1902/1906 2500 SHSN BKN012CB



MetMap, La meteo Aeronautica in un colpo d'occhio ! - Copyright ORBIFLY Dicembre 2007 - Disclaimer

ORBIFLY MET'MAP TEAM :

Programmazione e sviluppo : Alexandra Zaïnal
Concezione : Baudouin d'Aumeries
Aiuto per la programmazione : Marc-Olivier Méhu
Supporto tecnico e logistico : Manuel Goepfert
Aiuto per la traduzione : Arnaldo La Scala

Contatto : metmap@orbifly.com




FONTI E CREDITI :

   NOAA